Hovedside
METAR-TAF:

METAR-TAF

Lufthavner :

Kristianstad, Sverige

breddegrad: 55-55N, lengdegrad: 014-05E, høyde over havet: 23 m

Gjeldene værobservasjon

Denne rapporten ble laget for 24 minutter siden, klokken 05:50 UTC
Vind 5 kt fra Vest-nordvest
Temperatur -1°C
Luftfuktighet 86%
Trykk 1029 hPa
Sikt 10 km eller mer

METAR: ESMK 240550Z AUTO 30005KT 9999 NCD M01/M03 Q1029

Tid: 07:14 (06:14 UTC)

Varsel

Denne rapporten ble laget for 13 timer og 15 minutter siden, klokken 16:59 UTC
Varsel gyldig fra 23. klokken 18 UTC til 23. klokken 20 UTC
Vind 6 kt fra skiftende retning
Sikt 10 km eller mer
Få skyer i en høyde av 4000 ft

TAF: ESMK 231659Z 2318/2320 VRB06KT 9999 FEW040

Værobservasjoner og værvarsel for over 4000 flyplasser (METAR- og TAF-rapporter).

Tilgjengelige stasjoner er representert av de røde og gule prikkene på kartet.

Hold musepekeren over prikken for å se navnet på stasjonen.

Klikk så for å se værobservasjoner og -varsler.

For å forandre kartet kan du klikke på den grønne knappen med svart kryss for å zoome inn, på den grønne knappen med strek for å zoome ut, eller på de grønne pilene for å se tilstøtende kart.


METAR-TAF: